createdAt,value
2022-12-20T00:02:37.686Z,-1.12
2022-12-20T00:05:41.822Z,-1.15
2022-12-20T00:08:45.354Z,-1.07
2022-12-20T00:11:48.330Z,-1.08
2022-12-20T00:14:50.961Z,-1.14
2022-12-20T00:17:53.916Z,-1.11
2022-12-20T00:21:00.649Z,-1.10
2022-12-20T00:24:04.002Z,-1.07
2022-12-20T00:27:06.739Z,-1.12
2022-12-20T00:30:09.818Z,-1.08
2022-12-20T00:33:12.354Z,-1.12
2022-12-20T00:36:16.881Z,-1.14
2022-12-20T00:39:19.424Z,-1.16
2022-12-20T00:42:22.191Z,-1.11
2022-12-20T00:45:24.727Z,-1.07
2022-12-20T00:48:29.508Z,-1.09
2022-12-20T00:51:32.895Z,-1.12
2022-12-20T00:54:35.885Z,-1.10
2022-12-20T00:57:38.431Z,-1.09
2022-12-20T01:00:41.578Z,-1.12
2022-12-20T01:03:44.463Z,-1.09
2022-12-20T01:06:48.838Z,-1.08
2022-12-20T01:09:51.624Z,-1.11
2022-12-20T01:12:54.933Z,-1.10
2022-12-20T01:15:57.828Z,-1.06
2022-12-20T01:19:00.943Z,-1.07
2022-12-20T01:22:03.888Z,-1.09
2022-12-20T01:25:07.227Z,-1.05
2022-12-20T01:28:10.248Z,-1.12
2022-12-20T01:31:16.958Z,-1.07
2022-12-20T01:34:19.530Z,-1.06
2022-12-20T01:37:22.424Z,-1.05
2022-12-20T01:40:25.460Z,-1.03
2022-12-20T01:43:57.259Z,-1.05
2022-12-20T01:46:59.784Z,-1.04
2022-12-20T01:50:04.317Z,-1.02
2022-12-20T01:53:07.522Z,-0.95
2022-12-20T01:56:10.992Z,-1.01
2022-12-20T01:59:14.206Z,-1.03
2022-12-20T02:02:17.923Z,-0.95
2022-12-20T02:05:22.875Z,-1.01
2022-12-20T02:08:25.447Z,-0.98
2022-12-20T02:11:57.395Z,-1.01
2022-12-20T02:15:05.915Z,-0.98
2022-12-20T02:18:23.528Z,-1.02
2022-12-20T02:22:04.793Z,-1.01
2022-12-20T02:25:30.591Z,-1.01
2022-12-20T02:29:15.309Z,-1.02
2022-12-20T02:32:43.859Z,-1.03
2022-12-20T02:35:46.448Z,-1.06
2022-12-20T02:38:49.530Z,-1.03
2022-12-20T02:41:55.646Z,-1.03
2022-12-20T02:45:16.537Z,-1.01
2022-12-20T02:48:19.576Z,-1.03
2022-12-20T02:51:24.116Z,-1.00
2022-12-20T02:54:27.244Z,-1.02
2022-12-20T02:57:38.825Z,-1.00
2022-12-20T03:00:43.214Z,-1.02
2022-12-20T03:03:46.156Z,-1.02
2022-12-20T03:06:58.929Z,-1.02
2022-12-20T03:10:01.732Z,-1.00
2022-12-20T03:13:04.708Z,-0.99
2022-12-20T03:16:09.428Z,-1.03
2022-12-20T03:19:12.067Z,-1.05
2022-12-20T03:22:15.506Z,-1.00
2022-12-20T03:25:18.110Z,-1.01
2022-12-20T03:28:21.325Z,-1.03
2022-12-20T03:31:24.208Z,-1.08
2022-12-20T03:34:27.437Z,-1.11
2022-12-20T03:37:30.100Z,-1.15
2022-12-20T03:40:38.889Z,-1.12
2022-12-20T03:43:41.554Z,-1.13
2022-12-20T03:46:44.513Z,-1.14
2022-12-20T03:49:47.194Z,-1.16
2022-12-20T03:52:50.249Z,-1.15
2022-12-20T03:55:52.900Z,-1.16
2022-12-20T03:58:55.936Z,-1.11
2022-12-20T04:01:59.087Z,-1.15
2022-12-20T04:05:07.084Z,-1.15
2022-12-20T04:08:11.584Z,-1.14
2022-12-20T04:11:19.263Z,-1.16
2022-12-20T04:14:22.535Z,-1.17
2022-12-20T04:17:25.452Z,-1.18
2022-12-20T04:20:28.524Z,-1.15
2022-12-20T04:23:36.741Z,-1.14
2022-12-20T04:26:39.493Z,-1.15
2022-12-20T04:29:43.775Z,-1.11
2022-12-20T04:32:47.241Z,-1.12
2022-12-20T04:35:51.933Z,-1.09
2022-12-20T04:38:56.603Z,-1.15
2022-12-20T04:41:59.557Z,-1.13
2022-12-20T04:45:02.089Z,-1.17
2022-12-20T04:48:28.538Z,-1.16
2022-12-20T04:51:28.270Z,-1.19
2022-12-20T04:54:31.161Z,-1.27
2022-12-20T04:57:34.232Z,-1.12
2022-12-20T05:00:37.800Z,-1.16
2022-12-20T05:03:42.618Z,-1.15
2022-12-20T05:06:45.930Z,-1.15
2022-12-20T05:09:50.050Z,-1.17
2022-12-20T05:12:52.987Z,-1.16
2022-12-20T05:15:57.742Z,-1.19
2022-12-20T05:19:03.378Z,-1.14
2022-12-20T05:22:25.975Z,-1.16
2022-12-20T05:25:50.913Z,-1.17
2022-12-20T05:28:53.561Z,-1.19
2022-12-20T05:31:56.772Z,-1.15
2022-12-20T05:34:59.410Z,-1.18
2022-12-20T05:38:03.794Z,-1.20
2022-12-20T05:41:06.885Z,-1.19
2022-12-20T05:44:09.767Z,-1.21
2022-12-20T05:47:12.662Z,-1.21
2022-12-20T05:50:19.134Z,-1.22
2022-12-20T05:53:37.336Z,-1.22
2022-12-20T05:56:41.091Z,-1.25
2022-12-20T05:59:44.106Z,-1.22
2022-12-20T06:02:48.562Z,-1.32
2022-12-20T06:05:51.520Z,-1.22
2022-12-20T06:08:56.307Z,-1.24
2022-12-20T06:12:01.374Z,-1.21
2022-12-20T06:15:05.499Z,-1.22
2022-12-20T06:18:09.572Z,-1.28
2022-12-20T06:21:13.734Z,-1.24
2022-12-20T06:24:16.843Z,-1.22
2022-12-20T06:27:21.635Z,-1.23
2022-12-20T06:30:31.917Z,-1.25
2022-12-20T06:33:37.182Z,-1.22
2022-12-20T06:36:40.738Z,-1.21
2022-12-20T06:39:44.041Z,-1.23
2022-12-20T06:42:47.008Z,-1.22
2022-12-20T06:45:50.091Z,-1.24
2022-12-20T06:48:53.517Z,-1.24
2022-12-20T06:51:56.404Z,-1.18
2022-12-20T06:54:59.697Z,-1.24
2022-12-20T06:58:04.092Z,-1.21
2022-12-20T07:01:07.292Z,-1.23
2022-12-20T07:04:09.896Z,-1.24
2022-12-20T07:07:13.650Z,-1.24
2022-12-20T07:10:17.659Z,-1.22
2022-12-20T07:13:20.621Z,-1.22
2022-12-20T07:16:23.588Z,-1.24
2022-12-20T07:19:27.523Z,-1.27
2022-12-20T07:22:30.056Z,-1.29
2022-12-20T07:25:32.940Z,-1.26
2022-12-20T07:28:35.610Z,-1.26
2022-12-20T07:31:38.598Z,-1.26
2022-12-20T07:34:41.189Z,-1.24
2022-12-20T07:37:43.966Z,-1.28
2022-12-20T07:40:47.648Z,-1.24
2022-12-20T07:43:50.715Z,-1.22
2022-12-20T07:46:53.200Z,-1.21
2022-12-20T07:49:56.016Z,-1.24
2022-12-20T07:52:59.148Z,-1.23
2022-12-20T07:56:02.691Z,-1.21
2022-12-20T07:59:06.201Z,-1.21
2022-12-20T08:02:12.899Z,-1.17
2022-12-20T08:05:16.236Z,-1.14
2022-12-20T08:08:19.335Z,-1.17
2022-12-20T08:11:23.058Z,-1.17
2022-12-20T08:14:25.548Z,-1.21
2022-12-20T08:17:28.405Z,-1.18
2022-12-20T08:20:31.105Z,-1.19
2022-12-20T08:23:34.176Z,-1.18
2022-12-20T08:26:40.240Z,-1.19
2022-12-20T08:29:43.441Z,-1.15
2022-12-20T08:32:46.672Z,-1.14
2022-12-20T08:35:57.627Z,-1.17
2022-12-20T08:39:04.642Z,-1.16
2022-12-20T08:42:07.474Z,-1.09
2022-12-20T08:45:10.271Z,-1.07
2022-12-20T08:48:13.112Z,-1.05
2022-12-20T08:51:15.852Z,-1.01
2022-12-20T08:54:18.979Z,-0.98
2022-12-20T08:57:21.765Z,-1.02
2022-12-20T09:00:24.615Z,-1.03
2022-12-20T09:03:29.357Z,-0.96
2022-12-20T09:06:32.120Z,-0.96
2022-12-20T09:09:34.739Z,-0.93
2022-12-20T09:12:39.048Z,-0.88
2022-12-20T09:15:42.474Z,-0.90
2022-12-20T09:18:51.768Z,-0.92
2022-12-20T09:21:55.533Z,-0.90
2022-12-20T09:24:58.644Z,-0.91
2022-12-20T09:28:01.239Z,-0.90
2022-12-20T09:31:06.500Z,-0.93
2022-12-20T09:34:10.197Z,-0.94
2022-12-20T09:37:13.062Z,-0.92
2022-12-20T09:40:22.825Z,-0.92
2022-12-20T09:43:25.733Z,-0.97
2022-12-20T09:46:28.537Z,-0.94
2022-12-20T09:49:36.264Z,-0.94
2022-12-20T09:53:11.122Z,-1.00
2022-12-20T09:56:24.974Z,-0.96
2022-12-20T09:59:28.012Z,-0.93
2022-12-20T10:05:56.168Z,-0.90
2022-12-20T10:09:05.700Z,-0.84
2022-12-20T10:12:46.982Z,-0.86
2022-12-20T10:15:54.569Z,-0.82
2022-12-20T10:19:12.644Z,-0.87
2022-12-20T10:22:31.180Z,-0.87
2022-12-20T10:25:35.130Z,-0.84
2022-12-20T10:28:38.450Z,-0.82
2022-12-20T10:31:41.541Z,-0.79
2022-12-20T10:35:15.242Z,-0.80
2022-12-20T10:38:18.499Z,-0.80
2022-12-20T10:41:24.536Z,-0.85
2022-12-20T10:44:28.794Z,-0.87
2022-12-20T10:47:51.618Z,-0.83
2022-12-20T10:51:03.272Z,-0.85
2022-12-20T10:54:24.226Z,-0.86
2022-12-20T10:57:29.145Z,-0.83
2022-12-20T11:00:32.842Z,-0.82
2022-12-20T11:03:53.362Z,-0.82
2022-12-20T11:06:56.659Z,-0.84
2022-12-20T11:10:02.832Z,-0.83
2022-12-20T11:13:06.705Z,-0.85
2022-12-20T11:16:24.317Z,-0.86
2022-12-20T11:19:50.737Z,-0.87
2022-12-20T11:23:00.512Z,-0.87
2022-12-20T11:26:32.117Z,-0.86
2022-12-20T11:30:20.462Z,-0.83
2022-12-20T11:33:57.405Z,-0.80
2022-12-20T11:37:10.847Z,-0.82
2022-12-20T11:40:16.156Z,-0.83
2022-12-20T11:44:23.918Z,-0.87
2022-12-20T11:47:25.274Z,-0.87
2022-12-20T11:50:34.283Z,-0.88
2022-12-20T11:53:36.766Z,-0.83
2022-12-20T11:56:45.470Z,-0.86
2022-12-20T11:59:54.921Z,-0.83
2022-12-20T12:03:04.132Z,-0.83
2022-12-20T12:06:32.071Z,-0.81
2022-12-20T12:09:45.656Z,-0.76
2022-12-20T12:13:04.333Z,-0.78
2022-12-20T12:16:13.802Z,-0.83
2022-12-20T12:19:16.892Z,-0.80
2022-12-20T12:22:28.658Z,-0.83
2022-12-20T12:25:31.735Z,-0.86
2022-12-20T12:28:34.663Z,-0.88
2022-12-20T12:31:37.540Z,-0.91
2022-12-20T12:35:14.397Z,-0.96
2022-12-20T12:38:26.645Z,-0.99
2022-12-20T12:42:28.275Z,-0.98
2022-12-20T12:45:56.119Z,-1.00
2022-12-20T12:49:05.231Z,-1.02
2022-12-20T12:52:32.203Z,-1.02
2022-12-20T12:55:39.507Z,-1.00
2022-12-20T12:58:48.389Z,-0.99
2022-12-20T13:01:57.053Z,-0.97
2022-12-20T13:05:06.319Z,-0.97
2022-12-20T13:08:18.584Z,-1.01
2022-12-20T13:11:47.352Z,-1.03
2022-12-20T13:14:51.359Z,-1.04
2022-12-20T13:18:09.625Z,-1.05
2022-12-20T13:21:30.123Z,-1.06
2022-12-20T13:24:58.710Z,-1.08
2022-12-20T13:28:19.690Z,-1.06
2022-12-20T13:31:22.539Z,-1.03
2022-12-20T13:34:54.722Z,-0.98
2022-12-20T13:37:57.498Z,-1.03
2022-12-20T13:41:00.995Z,-1.05
2022-12-20T13:44:35.575Z,-1.03
2022-12-20T13:47:42.519Z,-1.05
2022-12-20T13:50:52.519Z,-1.01
2022-12-20T13:53:58.088Z,-1.02
2022-12-20T13:57:00.920Z,-1.04
2022-12-20T14:00:07.784Z,-1.02
2022-12-20T14:03:30.752Z,-1.06
2022-12-20T14:06:33.948Z,-1.06
2022-12-20T14:09:38.181Z,-1.10
2022-12-20T14:12:45.475Z,-1.09
2022-12-20T14:15:48.381Z,-1.10
2022-12-20T14:19:00.714Z,-1.09
2022-12-20T14:22:03.659Z,-1.11
2022-12-20T14:25:07.457Z,-1.10
2022-12-20T14:28:26.533Z,-1.10
2022-12-20T14:31:32.236Z,-1.13
2022-12-20T14:34:41.361Z,-1.10
2022-12-20T14:37:53.512Z,-1.11
2022-12-20T14:40:56.847Z,-1.17
2022-12-20T14:44:08.222Z,-1.19
2022-12-20T14:47:16.883Z,-1.16
2022-12-20T14:50:51.405Z,-1.18
2022-12-20T14:53:55.947Z,-1.18
2022-12-20T14:56:58.648Z,-1.22
2022-12-20T15:00:13.721Z,-1.24
2022-12-20T15:03:18.843Z,-1.40
2022-12-20T15:06:32.559Z,-1.24
2022-12-20T15:09:35.533Z,-1.28
2022-12-20T15:12:42.198Z,-1.27
2022-12-20T15:15:45.620Z,-1.25
2022-12-20T15:18:59.158Z,-1.23
2022-12-20T15:22:02.038Z,-1.27
2022-12-20T15:25:17.722Z,-1.23
2022-12-20T15:28:25.693Z,-1.30
2022-12-20T15:31:33.656Z,-1.31
2022-12-20T15:34:38.595Z,-1.30
2022-12-20T15:37:41.762Z,-1.29
2022-12-20T15:40:46.253Z,-1.30
2022-12-20T15:43:55.250Z,-1.33
2022-12-20T15:46:57.837Z,-1.30
2022-12-20T15:50:00.729Z,-1.28
2022-12-20T15:53:03.272Z,-1.28
2022-12-20T15:56:06.371Z,-1.27
2022-12-20T15:59:40.247Z,-1.27
2022-12-20T16:02:32.844Z,-1.27
2022-12-20T16:05:35.958Z,-1.24
2022-12-20T16:08:39.819Z,-1.30
2022-12-20T16:11:43.413Z,-1.33
2022-12-20T16:14:46.042Z,-1.29
2022-12-20T16:17:48.907Z,-1.27
2022-12-20T16:20:53.284Z,-1.29
2022-12-20T16:23:56.328Z,-1.28
2022-12-20T16:26:58.894Z,-1.25
2022-12-20T16:30:01.803Z,-1.27
2022-12-20T16:33:04.873Z,-1.26
2022-12-20T16:36:11.416Z,-1.28
2022-12-20T16:39:14.517Z,-1.27
2022-12-20T16:42:22.466Z,-1.28
2022-12-20T16:45:30.263Z,-1.28
2022-12-20T16:48:33.102Z,-1.28
2022-12-20T16:51:39.118Z,-1.28
2022-12-20T16:54:41.979Z,-1.29
2022-12-20T16:57:44.782Z,-1.28
2022-12-20T17:00:48.009Z,-1.27
2022-12-20T17:03:52.391Z,-1.27
2022-12-20T17:06:55.384Z,-1.26
2022-12-20T17:09:59.185Z,-1.26
2022-12-20T17:13:02.165Z,-1.24
2022-12-20T17:16:07.039Z,-1.23
2022-12-20T17:19:10.912Z,-1.22
2022-12-20T17:25:42.024Z,-1.21
2022-12-20T17:28:44.633Z,-1.22
2022-12-20T17:31:48.401Z,-1.24
2022-12-20T17:34:51.390Z,-1.27
2022-12-20T17:37:57.384Z,-1.21
2022-12-20T17:41:00.018Z,-1.21
2022-12-20T17:44:03.981Z,-1.21
2022-12-20T17:47:06.830Z,-1.19
2022-12-20T17:50:10.012Z,-1.18
2022-12-20T17:53:12.537Z,-1.18
2022-12-20T17:56:22.559Z,-1.17
2022-12-20T17:59:25.993Z,-1.19
2022-12-20T18:02:28.896Z,-1.18
2022-12-20T18:05:31.944Z,-1.18
2022-12-20T18:08:34.512Z,-1.17
2022-12-20T18:11:37.423Z,-1.18
2022-12-20T18:14:39.968Z,-1.18
2022-12-20T18:17:42.962Z,-1.14
2022-12-20T18:20:45.578Z,-1.17
2022-12-20T18:23:48.788Z,-1.15
2022-12-20T18:26:51.402Z,-1.16
2022-12-20T18:29:54.504Z,-1.18
2022-12-20T18:32:57.092Z,-1.16
2022-12-20T18:36:20.228Z,-1.15
2022-12-20T18:39:23.260Z,-1.14
2022-12-20T18:42:26.120Z,-1.12
2022-12-20T18:45:28.769Z,-1.10
2022-12-20T18:48:32.699Z,-1.12
2022-12-20T18:51:39.132Z,-1.10
2022-12-20T18:54:41.955Z,-1.10
2022-12-20T18:57:44.495Z,-1.07
2022-12-20T19:00:52.418Z,-1.06
2022-12-20T19:03:55.618Z,-1.06
2022-12-20T19:06:58.751Z,-1.10
2022-12-20T19:10:01.378Z,-1.07
2022-12-20T19:13:06.389Z,-1.06
2022-12-20T19:16:16.098Z,-1.07
2022-12-20T19:19:20.505Z,-1.05
2022-12-20T19:22:23.037Z,-1.06
2022-12-20T19:25:26.128Z,-1.06
2022-12-20T19:28:30.341Z,-1.07
2022-12-20T19:31:36.506Z,-1.05
2022-12-20T19:34:39.452Z,-1.05
2022-12-20T19:37:42.541Z,-1.07
2022-12-20T19:40:52.127Z,-1.06
2022-12-20T19:43:55.797Z,-1.04
2022-12-20T19:47:06.182Z,-1.04
2022-12-20T19:50:09.693Z,-1.06
2022-12-20T19:53:12.250Z,-1.05
2022-12-20T19:56:18.167Z,-1.08
2022-12-20T19:59:22.277Z,-1.07
2022-12-20T20:02:26.013Z,-1.07
2022-12-20T20:05:29.218Z,-1.08
2022-12-20T20:08:32.966Z,-1.05
2022-12-20T20:11:35.834Z,-1.07
2022-12-20T20:14:38.526Z,-1.06
2022-12-20T20:17:41.364Z,-1.07
2022-12-20T20:20:44.007Z,-1.06
2022-12-20T20:23:47.324Z,-1.05
2022-12-20T20:26:50.108Z,-1.05
2022-12-20T20:29:52.933Z,-1.08
2022-12-20T20:36:01.898Z,-1.08
2022-12-20T20:39:04.603Z,-1.08
2022-12-20T20:42:07.519Z,-1.09
2022-12-20T20:45:10.619Z,-1.07
2022-12-20T20:48:15.962Z,-1.08
2022-12-20T20:51:18.630Z,-1.07
2022-12-20T20:54:21.654Z,-1.09
2022-12-20T20:57:24.301Z,-1.11
2022-12-20T21:00:29.249Z,-1.11
2022-12-20T21:03:34.812Z,-1.11
2022-12-20T21:06:41.203Z,-1.09
2022-12-20T21:09:44.362Z,-1.10
2022-12-20T21:12:47.178Z,-1.08
2022-12-20T21:15:49.690Z,-1.08
2022-12-20T21:18:53.796Z,-1.08
2022-12-20T21:21:56.325Z,-1.10
2022-12-20T21:25:00.423Z,-1.08
2022-12-20T21:28:03.285Z,-1.08
2022-12-20T21:31:11.640Z,-1.07
2022-12-20T21:34:17.692Z,-1.07
2022-12-20T21:37:21.647Z,-1.05
2022-12-20T21:40:24.328Z,-1.08
2022-12-20T21:43:27.422Z,-1.06
2022-12-20T21:46:32.023Z,-1.08
2022-12-20T21:49:35.033Z,-1.07
2022-12-20T21:52:40.690Z,-1.07
2022-12-20T21:55:43.536Z,-1.11
2022-12-20T21:58:46.993Z,-1.09
2022-12-20T22:01:50.252Z,-1.07
2022-12-20T22:07:56.547Z,-1.05
2022-12-20T22:11:07.531Z,-1.04
2022-12-20T22:14:11.973Z,-1.06
2022-12-20T22:17:16.621Z,-1.05
2022-12-20T22:20:19.417Z,-1.04
2022-12-20T22:23:22.270Z,-1.03
2022-12-20T22:26:27.248Z,-1.02
2022-12-20T22:29:30.293Z,-1.02
2022-12-20T22:32:32.953Z,-1.01
2022-12-20T22:35:36.050Z,-1.01
2022-12-20T22:38:38.927Z,-1.02
2022-12-20T22:41:42.644Z,-1.01
2022-12-20T22:44:45.187Z,-1.03
2022-12-20T22:47:48.078Z,-1.03
2022-12-20T22:50:59.231Z,-1.03
2022-12-20T22:54:02.562Z,-1.03
2022-12-20T22:57:05.160Z,-1.02
2022-12-20T23:00:13.095Z,-0.98
2022-12-20T23:03:18.765Z,-0.99
2022-12-20T23:06:21.925Z,-0.97
2022-12-20T23:09:25.549Z,-0.96
2022-12-20T23:12:46.721Z,-0.96
2022-12-20T23:15:49.196Z,-0.98
2022-12-20T23:19:00.252Z,-0.96
2022-12-20T23:22:21.488Z,-0.97
2022-12-20T23:25:25.536Z,-0.97
2022-12-20T23:28:28.230Z,-1.00
2022-12-20T23:31:32.005Z,-0.98
2022-12-20T23:34:35.049Z,-0.99
2022-12-20T23:37:39.379Z,-0.99
2022-12-20T23:40:43.575Z,-0.98
2022-12-20T23:43:46.662Z,-0.97
2022-12-20T23:46:49.158Z,-0.96
2022-12-20T23:49:51.937Z,-0.97
2022-12-20T23:52:54.441Z,-0.99
2022-12-20T23:56:03.452Z,-0.98
2022-12-20T23:59:05.872Z,-1.01
